الصفحة الرئيسية
METAR-TAF:

METAR-TAF

مطار :

Luganville, إسبيريتو سانتو, فانواتو

دائرة عرض: 15-31S, خط طول: 167-13E, ارتفاع: 41 متر

مراقبة الطقس الحالي

تاريخ ووقت الإصدار 5ساعات و 32 دقيقة قبل الساعة 12:00UTC
ريح 3 عقدة من الغرب/الجنوب الغربي
درجة الحرارة 25°درجة مئوية
الرطوبة 94%
ضغط 1012 hPa
الرؤية 10 كم أو أكثر
غيوم مفككة على ارتفاع 1800 قدم
غيوم قليلة على ارتفاع 2500 قدم, مزنة ركامية.
عاصفة رعدية

METAR: NVSS 221200Z 25003KT 9999 TS BKN018 FEW025CB 25/24 Q1012 RMK RERA

زمن: 04:32 (17:32 UTC)

توقعات

تاريخ ووقت الإصدار 7ساعات و 32 دقيقة قبل الساعة 10:00UTC
التوقعات صالحة من22 الساعة 12 UTC إلى 23 الساعة 12 UTC
ريح 2 عقدةمن اتجاهات متغيرة
الرؤية 10 كم أو أكثر
غيوم متفرقة على ارتفاع 2000 قدم

TAF: NVSS 221000Z 2212/2312 VRB02KT 9999 SCT020

أرصاد الطقس والتوقعات من أكثر من 4000 مطار (تقارير الطقس للمطار METAR والتنبؤ بالطقس بالمطارTAF).

المحطات المتاحة هي النقط الصفراء والحمراء على الخريطة.

حرك المؤشر فوق النقطة لمعرفة اسم المحطة.

ثم انقر لمعرفة أرصاد وتوقعات الطقس.

لتغيير الخارطة: اضغط على الأزرار الخضراء مع رمز الصليب الأسود للتكبير. على الزر الأخضر مع شرطة للتصغير، أو على الأسهم الخضراء للخرائط المجاورة.


METAR-TAF: